sensor_id;sensor_type;location;lat;lon;timestamp;temperature;humidity
58809;DHT22;44579;51.672;7.834;2023-06-22T00:00:11;23.90;50.90
58809;DHT22;44579;51.672;7.834;2023-06-22T00:02:39;23.90;50.70
58809;DHT22;44579;51.672;7.834;2023-06-22T00:05:05;23.90;50.70
58809;DHT22;44579;51.672;7.834;2023-06-22T00:07:32;23.80;50.80
58809;DHT22;44579;51.672;7.834;2023-06-22T00:09:59;23.80;50.90
58809;DHT22;44579;51.672;7.834;2023-06-22T00:12:26;23.80;51.00
58809;DHT22;44579;51.672;7.834;2023-06-22T00:14:53;23.80;51.10
58809;DHT22;44579;51.672;7.834;2023-06-22T00:17:20;23.70;51.10
58809;DHT22;44579;51.672;7.834;2023-06-22T00:19:47;23.70;51.20
58809;DHT22;44579;51.672;7.834;2023-06-22T00:22:14;23.70;51.50
58809;DHT22;44579;51.672;7.834;2023-06-22T00:24:41;23.70;51.60
58809;DHT22;44579;51.672;7.834;2023-06-22T00:27:08;23.60;51.70
58809;DHT22;44579;51.672;7.834;2023-06-22T00:29:35;23.60;51.90
58809;DHT22;44579;51.672;7.834;2023-06-22T00:32:02;23.60;52.00
58809;DHT22;44579;51.672;7.834;2023-06-22T00:34:28;23.50;51.90
58809;DHT22;44579;51.672;7.834;2023-06-22T00:36:55;23.50;51.90
58809;DHT22;44579;51.672;7.834;2023-06-22T00:39:22;23.50;51.90
58809;DHT22;44579;51.672;7.834;2023-06-22T00:41:50;23.50;51.90
58809;DHT22;44579;51.672;7.834;2023-06-22T00:44:17;23.50;52.00
58809;DHT22;44579;51.672;7.834;2023-06-22T00:46:44;23.50;52.00
58809;DHT22;44579;51.672;7.834;2023-06-22T00:49:11;23.40;51.90
58809;DHT22;44579;51.672;7.834;2023-06-22T00:51:38;23.40;52.20
58809;DHT22;44579;51.672;7.834;2023-06-22T00:54:05;23.40;52.20
58809;DHT22;44579;51.672;7.834;2023-06-22T00:56:32;23.40;52.20
58809;DHT22;44579;51.672;7.834;2023-06-22T00:59:01;23.40;52.20
58809;DHT22;44579;51.672;7.834;2023-06-22T01:01:30;23.40;52.10
58809;DHT22;44579;51.672;7.834;2023-06-22T01:03:57;23.40;52.40
58809;DHT22;44579;51.672;7.834;2023-06-22T01:06:29;23.30;52.70
58809;DHT22;44579;51.672;7.834;2023-06-22T01:09:22;23.20;52.90
58809;DHT22;44579;51.672;7.834;2023-06-22T01:11:45;23.20;53.00
58809;DHT22;44579;51.672;7.834;2023-06-22T01:14:58;23.30;52.90
58809;DHT22;44579;51.672;7.834;2023-06-22T01:17:05;23.30;52.70
58809;DHT22;44579;51.672;7.834;2023-06-22T01:19:39;23.30;52.60
58809;DHT22;44579;51.672;7.834;2023-06-22T01:22:08;23.30;52.80
58809;DHT22;44579;51.672;7.834;2023-06-22T01:27:32;23.20;53.00
58809;DHT22;44579;51.672;7.834;2023-06-22T01:29:59;23.20;52.90
58809;DHT22;44579;51.672;7.834;2023-06-22T01:32:31;23.20;52.80
58809;DHT22;44579;51.672;7.834;2023-06-22T01:35:00;23.20;52.90
58809;DHT22;44579;51.672;7.834;2023-06-22T01:37:30;23.20;52.70
58809;DHT22;44579;51.672;7.834;2023-06-22T01:39:59;23.20;52.80
58809;DHT22;44579;51.672;7.834;2023-06-22T01:42:26;23.10;52.90
58809;DHT22;44579;51.672;7.834;2023-06-22T01:44:53;23.10;53.20
58809;DHT22;44579;51.672;7.834;2023-06-22T01:47:23;22.90;53.40
58809;DHT22;44579;51.672;7.834;2023-06-22T01:49:51;22.90;53.60
58809;DHT22;44579;51.672;7.834;2023-06-22T01:52:20;22.90;54.40
58809;DHT22;44579;51.672;7.834;2023-06-22T01:54:48;22.90;53.60
58809;DHT22;44579;51.672;7.834;2023-06-22T01:57:15;22.90;53.50
58809;DHT22;44579;51.672;7.834;2023-06-22T02:02:16;23.00;53.20
58809;DHT22;44579;51.672;7.834;2023-06-22T02:07:20;23.00;53.30
58809;DHT22;44579;51.672;7.834;2023-06-22T02:09:50;23.00;53.40
58809;DHT22;44579;51.672;7.834;2023-06-22T02:12:19;23.00;53.40
58809;DHT22;44579;51.672;7.834;2023-06-22T02:14:47;23.00;53.50
58809;DHT22;44579;51.672;7.834;2023-06-22T02:17:16;23.00;53.40
58809;DHT22;44579;51.672;7.834;2023-06-22T02:19:43;23.00;53.40
58809;DHT22;44579;51.672;7.834;2023-06-22T02:22:10;23.00;53.50
58809;DHT22;44579;51.672;7.834;2023-06-22T02:24:37;23.00;53.60
58809;DHT22;44579;51.672;7.834;2023-06-22T02:27:04;22.90;53.60
58809;DHT22;44579;51.672;7.834;2023-06-22T02:29:33;22.90;53.60
58809;DHT22;44579;51.672;7.834;2023-06-22T02:32:01;22.90;53.50
58809;DHT22;44579;51.672;7.834;2023-06-22T02:34:28;22.90;53.50
58809;DHT22;44579;51.672;7.834;2023-06-22T02:36:55;22.90;53.50
58809;DHT22;44579;51.672;7.834;2023-06-22T02:39:22;22.90;53.60
58809;DHT22;44579;51.672;7.834;2023-06-22T02:41:50;22.80;53.80
58809;DHT22;44579;51.672;7.834;2023-06-22T02:44:17;22.70;54.00
58809;DHT22;44579;51.672;7.834;2023-06-22T02:46:44;22.70;54.30
58809;DHT22;44579;51.672;7.834;2023-06-22T02:49:13;22.60;54.40
58809;DHT22;44579;51.672;7.834;2023-06-22T02:51:45;22.60;54.40
58809;DHT22;44579;51.672;7.834;2023-06-22T02:54:13;22.60;54.40
58809;DHT22;44579;51.672;7.834;2023-06-22T02:56:41;22.60;54.50
58809;DHT22;44579;51.672;7.834;2023-06-22T02:59:10;22.50;54.60
58809;DHT22;44579;51.672;7.834;2023-06-22T03:01:38;22.50;54.70
58809;DHT22;44579;51.672;7.834;2023-06-22T03:04:17;22.50;54.80
58809;DHT22;44579;51.672;7.834;2023-06-22T03:06:44;22.40;54.90
58809;DHT22;44579;51.672;7.834;2023-06-22T03:09:17;22.40;55.10
58809;DHT22;44579;51.672;7.834;2023-06-22T03:11:44;22.40;55.20
58809;DHT22;44579;51.672;7.834;2023-06-22T03:14:11;22.30;55.30
58809;DHT22;44579;51.672;7.834;2023-06-22T03:16:38;22.30;56.00
58809;DHT22;44579;51.672;7.834;2023-06-22T03:19:07;22.30;55.40
58809;DHT22;44579;51.672;7.834;2023-06-22T03:21:34;22.20;55.50
58809;DHT22;44579;51.672;7.834;2023-06-22T03:24:00;22.30;55.60
58809;DHT22;44579;51.672;7.834;2023-06-22T03:26:27;22.20;55.60
58809;DHT22;44579;51.672;7.834;2023-06-22T03:28:54;22.20;55.50
58809;DHT22;44579;51.672;7.834;2023-06-22T03:31:21;22.20;55.40
58809;DHT22;44579;51.672;7.834;2023-06-22T03:33:49;22.20;55.40
58809;DHT22;44579;51.672;7.834;2023-06-22T03:36:17;22.20;55.40
58809;DHT22;44579;51.672;7.834;2023-06-22T03:38:47;22.10;56.00
58809;DHT22;44579;51.672;7.834;2023-06-22T03:41:15;22.10;56.30
58809;DHT22;44579;51.672;7.834;2023-06-22T03:43:43;22.00;56.40
58809;DHT22;44579;51.672;7.834;2023-06-22T03:46:10;22.00;56.80
58809;DHT22;44579;51.672;7.834;2023-06-22T03:48:39;21.90;56.90
58809;DHT22;44579;51.672;7.834;2023-06-22T03:51:06;21.90;56.80
58809;DHT22;44579;51.672;7.834;2023-06-22T03:53:33;22.00;56.80
58809;DHT22;44579;51.672;7.834;2023-06-22T03:56:00;22.00;56.90
58809;DHT22;44579;51.672;7.834;2023-06-22T03:58:30;22.10;57.10
58809;DHT22;44579;51.672;7.834;2023-06-22T04:01:00;22.00;57.00
58809;DHT22;44579;51.672;7.834;2023-06-22T04:03:26;22.10;56.90
58809;DHT22;44579;51.672;7.834;2023-06-22T04:05:53;22.10;56.80
58809;DHT22;44579;51.672;7.834;2023-06-22T04:08:20;22.20;56.60
58809;DHT22;44579;51.672;7.834;2023-06-22T04:10:47;22.20;56.70
58809;DHT22;44579;51.672;7.834;2023-06-22T04:13:14;22.20;56.80
58809;DHT22;44579;51.672;7.834;2023-06-22T04:15:41;22.30;56.80
58809;DHT22;44579;51.672;7.834;2023-06-22T04:18:08;22.30;56.80
58809;DHT22;44579;51.672;7.834;2023-06-22T04:20:38;22.40;56.70
58809;DHT22;44579;51.672;7.834;2023-06-22T04:23:05;22.40;56.90
58809;DHT22;44579;51.672;7.834;2023-06-22T04:25:33;22.50;56.90
58809;DHT22;44579;51.672;7.834;2023-06-22T04:28:00;22.50;57.00
58809;DHT22;44579;51.672;7.834;2023-06-22T04:30:29;22.50;57.10
58809;DHT22;44579;51.672;7.834;2023-06-22T04:32:58;22.50;57.30
58809;DHT22;44579;51.672;7.834;2023-06-22T04:35:25;22.50;57.50
58809;DHT22;44579;51.672;7.834;2023-06-22T04:37:52;22.50;57.90
58809;DHT22;44579;51.672;7.834;2023-06-22T04:40:22;22.50;58.00
58809;DHT22;44579;51.672;7.834;2023-06-22T04:42:49;22.50;57.90
58809;DHT22;44579;51.672;7.834;2023-06-22T04:45:22;22.60;57.80
58809;DHT22;44579;51.672;7.834;2023-06-22T04:47:49;22.60;58.00
58809;DHT22;44579;51.672;7.834;2023-06-22T04:50:16;22.70;58.30
58809;DHT22;44579;51.672;7.834;2023-06-22T04:52:44;22.70;58.60
58809;DHT22;44579;51.672;7.834;2023-06-22T04:55:12;22.80;58.90
58809;DHT22;44579;51.672;7.834;2023-06-22T04:57:41;22.80;59.20
58809;DHT22;44579;51.672;7.834;2023-06-22T05:00:11;22.90;59.20
58809;DHT22;44579;51.672;7.834;2023-06-22T05:02:39;23.00;58.90
58809;DHT22;44579;51.672;7.834;2023-06-22T05:05:06;23.10;58.70
58809;DHT22;44579;51.672;7.834;2023-06-22T05:07:34;23.30;58.60
58809;DHT22;44579;51.672;7.834;2023-06-22T05:10:01;23.40;58.50
58809;DHT22;44579;51.672;7.834;2023-06-22T05:12:29;23.40;58.60
58809;DHT22;44579;51.672;7.834;2023-06-22T05:14:56;23.40;58.50
58809;DHT22;44579;51.672;7.834;2023-06-22T05:17:24;23.50;58.40
58809;DHT22;44579;51.672;7.834;2023-06-22T05:19:51;23.50;58.40
58809;DHT22;44579;51.672;7.834;2023-06-22T05:22:18;23.60;58.20
58809;DHT22;44579;51.672;7.834;2023-06-22T05:24:45;23.60;58.20
58809;DHT22;44579;51.672;7.834;2023-06-22T05:27:13;23.70;58.10
58809;DHT22;44579;51.672;7.834;2023-06-22T05:29:39;23.80;58.10
58809;DHT22;44579;51.672;7.834;2023-06-22T05:32:06;23.80;57.90
58809;DHT22;44579;51.672;7.834;2023-06-22T05:34:36;23.80;57.90
58809;DHT22;44579;51.672;7.834;2023-06-22T05:37:06;23.90;57.80
58809;DHT22;44579;51.672;7.834;2023-06-22T05:39:32;23.90;57.70
58809;DHT22;44579;51.672;7.834;2023-06-22T05:41:59;24.00;57.60
58809;DHT22;44579;51.672;7.834;2023-06-22T05:44:26;23.90;57.50
58809;DHT22;44579;51.672;7.834;2023-06-22T05:46:53;23.90;57.50
58809;DHT22;44579;51.672;7.834;2023-06-22T05:49:20;23.80;57.60
58809;DHT22;44579;51.672;7.834;2023-06-22T05:51:48;23.70;57.80
58809;DHT22;44579;51.672;7.834;2023-06-22T05:54:15;23.60;58.00
58809;DHT22;44579;51.672;7.834;2023-06-22T05:56:44;23.50;58.00
58809;DHT22;44579;51.672;7.834;2023-06-22T05:59:11;23.50;58.00
58809;DHT22;44579;51.672;7.834;2023-06-22T06:01:39;23.40;57.90
58809;DHT22;44579;51.672;7.834;2023-06-22T06:04:07;23.40;57.90
58809;DHT22;44579;51.672;7.834;2023-06-22T06:06:34;23.40;57.80
58809;DHT22;44579;51.672;7.834;2023-06-22T06:09:04;23.40;57.80
58809;DHT22;44579;51.672;7.834;2023-06-22T06:11:31;23.30;57.90
58809;DHT22;44579;51.672;7.834;2023-06-22T06:13:58;23.30;57.80
58809;DHT22;44579;51.672;7.834;2023-06-22T06:16:25;23.40;57.80
58809;DHT22;44579;51.672;7.834;2023-06-22T06:18:54;23.40;57.70
58809;DHT22;44579;51.672;7.834;2023-06-22T06:21:25;23.40;57.70
58809;DHT22;44579;51.672;7.834;2023-06-22T06:23:57;23.40;57.60
58809;DHT22;44579;51.672;7.834;2023-06-22T06:26:25;23.50;57.60
58809;DHT22;44579;51.672;7.834;2023-06-22T06:28:59;23.50;57.40
58809;DHT22;44579;51.672;7.834;2023-06-22T06:31:28;23.50;57.50
58809;DHT22;44579;51.672;7.834;2023-06-22T06:33:55;23.50;57.50
58809;DHT22;44579;51.672;7.834;2023-06-22T06:36:22;23.40;57.50
58809;DHT22;44579;51.672;7.834;2023-06-22T06:38:49;23.40;57.60
58809;DHT22;44579;51.672;7.834;2023-06-22T06:41:16;23.30;57.70
58809;DHT22;44579;51.672;7.834;2023-06-22T06:43:48;23.20;57.80
58809;DHT22;44579;51.672;7.834;2023-06-22T06:46:15;23.20;58.00
58809;DHT22;44579;51.672;7.834;2023-06-22T06:48:42;23.00;58.00
58809;DHT22;44579;51.672;7.834;2023-06-22T06:51:09;23.00;58.10
58809;DHT22;44579;51.672;7.834;2023-06-22T06:53:39;23.00;58.10
58809;DHT22;44579;51.672;7.834;2023-06-22T06:56:06;22.90;58.00
58809;DHT22;44579;51.672;7.834;2023-06-22T06:58:33;23.00;58.00
58809;DHT22;44579;51.672;7.834;2023-06-22T07:01:00;23.00;58.00
58809;DHT22;44579;51.672;7.834;2023-06-22T07:03:26;23.10;57.80
58809;DHT22;44579;51.672;7.834;2023-06-22T07:05:53;23.10;57.80
58809;DHT22;44579;51.672;7.834;2023-06-22T07:08:21;23.20;57.80
58809;DHT22;44579;51.672;7.834;2023-06-22T07:10:49;23.30;57.90
58809;DHT22;44579;51.672;7.834;2023-06-22T07:13:16;23.30;58.30
58809;DHT22;44579;51.672;7.834;2023-06-22T07:15:42;23.20;58.70
58809;DHT22;44579;51.672;7.834;2023-06-22T07:18:09;23.30;58.70
58809;DHT22;44579;51.672;7.834;2023-06-22T07:20:36;23.20;58.60
58809;DHT22;44579;51.672;7.834;2023-06-22T07:23:03;23.20;59.30
58809;DHT22;44579;51.672;7.834;2023-06-22T07:25:30;23.20;59.50
58809;DHT22;44579;51.672;7.834;2023-06-22T07:30:29;23.40;59.10
58809;DHT22;44579;51.672;7.834;2023-06-22T07:32:57;23.40;59.70
58809;DHT22;44579;51.672;7.834;2023-06-22T07:35:28;23.50;58.90
58809;DHT22;44579;51.672;7.834;2023-06-22T07:37:55;23.70;59.00
58809;DHT22;44579;51.672;7.834;2023-06-22T07:40:22;23.80;58.70
58809;DHT22;44579;51.672;7.834;2023-06-22T07:42:49;23.90;58.60
58809;DHT22;44579;51.672;7.834;2023-06-22T07:45:18;24.00;59.10
58809;DHT22;44579;51.672;7.834;2023-06-22T07:47:45;24.10;59.90
58809;DHT22;44579;51.672;7.834;2023-06-22T07:50:15;24.00;60.30
58809;DHT22;44579;51.672;7.834;2023-06-22T07:52:42;24.10;60.00
58809;DHT22;44579;51.672;7.834;2023-06-22T07:55:09;24.10;59.90
58809;DHT22;44579;51.672;7.834;2023-06-22T07:57:39;24.10;59.90
58809;DHT22;44579;51.672;7.834;2023-06-22T08:00:09;24.20;59.70
58809;DHT22;44579;51.672;7.834;2023-06-22T08:02:46;24.20;60.00
58809;DHT22;44579;51.672;7.834;2023-06-22T08:05:14;24.20;60.30
58809;DHT22;44579;51.672;7.834;2023-06-22T08:07:48;24.10;60.80
58809;DHT22;44579;51.672;7.834;2023-06-22T08:10:18;24.10;61.50
58809;DHT22;44579;51.672;7.834;2023-06-22T08:12:45;24.10;61.70
58809;DHT22;44579;51.672;7.834;2023-06-22T08:15:12;24.10;61.90
58809;DHT22;44579;51.672;7.834;2023-06-22T08:17:39;24.20;62.30
58809;DHT22;44579;51.672;7.834;2023-06-22T08:20:07;24.30;62.10
58809;DHT22;44579;51.672;7.834;2023-06-22T08:22:39;24.30;62.00
58809;DHT22;44579;51.672;7.834;2023-06-22T08:25:06;24.40;61.80
58809;DHT22;44579;51.672;7.834;2023-06-22T08:27:46;24.50;61.50
58809;DHT22;44579;51.672;7.834;2023-06-22T08:30:16;24.50;61.20
58809;DHT22;44579;51.672;7.834;2023-06-22T08:32:45;24.60;61.20
58809;DHT22;44579;51.672;7.834;2023-06-22T08:35:14;24.60;61.10
58809;DHT22;44579;51.672;7.834;2023-06-22T08:37:41;24.70;60.90
58809;DHT22;44579;51.672;7.834;2023-06-22T08:40:09;24.80;60.80
58809;DHT22;44579;51.672;7.834;2023-06-22T08:42:40;24.80;60.60
58809;DHT22;44579;51.672;7.834;2023-06-22T08:45:08;24.80;60.60
58809;DHT22;44579;51.672;7.834;2023-06-22T08:47:38;24.90;60.50
58809;DHT22;44579;51.672;7.834;2023-06-22T08:50:05;25.00;60.40
58809;DHT22;44579;51.672;7.834;2023-06-22T08:52:33;25.20;60.40
58809;DHT22;44579;51.672;7.834;2023-06-22T08:55:00;25.30;60.10
58809;DHT22;44579;51.672;7.834;2023-06-22T08:57:27;25.50;60.40
58809;DHT22;44579;51.672;7.834;2023-06-22T08:59:54;25.50;60.30
58809;DHT22;44579;51.672;7.834;2023-06-22T09:02:27;25.70;60.30
58809;DHT22;44579;51.672;7.834;2023-06-22T09:05:03;25.90;60.40
58809;DHT22;44579;51.672;7.834;2023-06-22T09:07:32;26.10;60.50
58809;DHT22;44579;51.672;7.834;2023-06-22T09:10:01;26.10;60.50
58809;DHT22;44579;51.672;7.834;2023-06-22T09:12:30;26.10;60.40
58809;DHT22;44579;51.672;7.834;2023-06-22T09:14:57;26.20;60.30
58809;DHT22;44579;51.672;7.834;2023-06-22T09:17:24;26.20;60.40
58809;DHT22;44579;51.672;7.834;2023-06-22T09:19:54;26.20;60.40
58809;DHT22;44579;51.672;7.834;2023-06-22T09:22:21;26.10;60.20
58809;DHT22;44579;51.672;7.834;2023-06-22T09:24:48;26.20;60.30
58809;DHT22;44579;51.672;7.834;2023-06-22T09:27:15;26.20;60.10
58809;DHT22;44579;51.672;7.834;2023-06-22T09:29:44;26.20;59.90
58809;DHT22;44579;51.672;7.834;2023-06-22T09:32:15;26.40;59.80
58809;DHT22;44579;51.672;7.834;2023-06-22T09:34:42;26.40;59.90
58809;DHT22;44579;51.672;7.834;2023-06-22T09:37:09;26.40;60.20
58809;DHT22;44579;51.672;7.834;2023-06-22T09:39:36;26.40;60.20
58809;DHT22;44579;51.672;7.834;2023-06-22T09:42:03;26.50;60.20
58809;DHT22;44579;51.672;7.834;2023-06-22T09:44:32;26.50;60.20
58809;DHT22;44579;51.672;7.834;2023-06-22T09:46:59;26.60;60.20
58809;DHT22;44579;51.672;7.834;2023-06-22T09:49:28;26.50;60.40
58809;DHT22;44579;51.672;7.834;2023-06-22T09:52:12;26.60;60.50
58809;DHT22;44579;51.672;7.834;2023-06-22T09:54:39;26.60;60.60
58809;DHT22;44579;51.672;7.834;2023-06-22T09:57:06;26.80;60.40
58809;DHT22;44579;51.672;7.834;2023-06-22T09:59:36;26.90;60.80
58809;DHT22;44579;51.672;7.834;2023-06-22T10:02:03;27.10;60.90
58809;DHT22;44579;51.672;7.834;2023-06-22T10:04:34;27.30;60.90
58809;DHT22;44579;51.672;7.834;2023-06-22T10:07:02;27.40;61.40
58809;DHT22;44579;51.672;7.834;2023-06-22T10:09:29;27.40;60.30
58809;DHT22;44579;51.672;7.834;2023-06-22T10:11:56;27.40;59.90
58809;DHT22;44579;51.672;7.834;2023-06-22T10:14:23;27.40;60.00
58809;DHT22;44579;51.672;7.834;2023-06-22T10:16:51;27.50;60.40
58809;DHT22;44579;51.672;7.834;2023-06-22T10:19:19;27.50;60.40
58809;DHT22;44579;51.672;7.834;2023-06-22T10:21:45;27.50;60.70
58809;DHT22;44579;51.672;7.834;2023-06-22T10:24:12;27.50;60.80
58809;DHT22;44579;51.672;7.834;2023-06-22T10:26:39;27.60;60.70
58809;DHT22;44579;51.672;7.834;2023-06-22T10:29:06;27.60;60.50
58809;DHT22;44579;51.672;7.834;2023-06-22T10:31:43;27.70;60.30
58809;DHT22;44579;51.672;7.834;2023-06-22T10:34:09;27.80;59.80
58809;DHT22;44579;51.672;7.834;2023-06-22T10:36:36;27.80;59.40
58809;DHT22;44579;51.672;7.834;2023-06-22T10:39:03;27.80;59.40
58809;DHT22;44579;51.672;7.834;2023-06-22T10:41:34;27.90;59.50
58809;DHT22;44579;51.672;7.834;2023-06-22T10:44:02;28.00;59.40
58809;DHT22;44579;51.672;7.834;2023-06-22T10:46:28;28.00;59.40
58809;DHT22;44579;51.672;7.834;2023-06-22T10:48:55;28.10;59.40
58809;DHT22;44579;51.672;7.834;2023-06-22T10:51:25;28.20;59.10
58809;DHT22;44579;51.672;7.834;2023-06-22T10:53:52;28.20;59.10
58809;DHT22;44579;51.672;7.834;2023-06-22T10:56:19;28.30;59.00
58809;DHT22;44579;51.672;7.834;2023-06-22T10:58:46;28.30;59.00
58809;DHT22;44579;51.672;7.834;2023-06-22T11:01:13;28.50;59.00
58809;DHT22;44579;51.672;7.834;2023-06-22T11:04:00;28.60;58.90
58809;DHT22;44579;51.672;7.834;2023-06-22T11:06:27;28.50;58.70
58809;DHT22;44579;51.672;7.834;2023-06-22T11:08:54;28.60;58.60
58809;DHT22;44579;51.672;7.834;2023-06-22T11:11:38;28.60;58.60
58809;DHT22;44579;51.672;7.834;2023-06-22T11:14:05;28.50;58.30
58809;DHT22;44579;51.672;7.834;2023-06-22T11:16:31;28.50;58.20
58809;DHT22;44579;51.672;7.834;2023-06-22T11:18:58;28.50;57.90
58809;DHT22;44579;51.672;7.834;2023-06-22T11:21:25;28.50;57.60
58809;DHT22;44579;51.672;7.834;2023-06-22T11:23:52;28.50;57.20
58809;DHT22;44579;51.672;7.834;2023-06-22T11:26:19;28.50;56.70
58809;DHT22;44579;51.672;7.834;2023-06-22T11:28:47;28.60;56.90
58809;DHT22;44579;51.672;7.834;2023-06-22T11:31:14;28.60;57.10
58809;DHT22;44579;51.672;7.834;2023-06-22T11:33:51;28.50;57.20
58809;DHT22;44579;51.672;7.834;2023-06-22T11:36:20;28.40;57.20
58809;DHT22;44579;51.672;7.834;2023-06-22T11:38:47;28.30;58.00
58809;DHT22;44579;51.672;7.834;2023-06-22T11:41:13;28.10;57.50
58809;DHT22;44579;51.672;7.834;2023-06-22T11:43:40;27.90;57.70
58809;DHT22;44579;51.672;7.834;2023-06-22T11:46:07;27.70;57.70
58809;DHT22;44579;51.672;7.834;2023-06-22T11:48:34;27.50;57.80
58809;DHT22;44579;51.672;7.834;2023-06-22T11:51:04;27.40;57.80
58809;DHT22;44579;51.672;7.834;2023-06-22T11:53:37;27.30;57.80
58809;DHT22;44579;51.672;7.834;2023-06-22T11:56:04;27.30;57.90
58809;DHT22;44579;51.672;7.834;2023-06-22T11:58:34;27.20;57.80
58809;DHT22;44579;51.672;7.834;2023-06-22T12:01:00;27.10;58.00
58809;DHT22;44579;51.672;7.834;2023-06-22T12:03:27;27.00;58.00
58809;DHT22;44579;51.672;7.834;2023-06-22T12:05:55;26.90;58.60
58809;DHT22;44579;51.672;7.834;2023-06-22T12:08:22;26.80;58.90
58809;DHT22;44579;51.672;7.834;2023-06-22T12:10:49;26.70;59.10
58809;DHT22;44579;51.672;7.834;2023-06-22T12:13:17;26.50;59.20
58809;DHT22;44579;51.672;7.834;2023-06-22T12:15:44;26.50;59.60
58809;DHT22;44579;51.672;7.834;2023-06-22T12:18:11;26.30;59.80
58809;DHT22;44579;51.672;7.834;2023-06-22T12:20:37;26.20;60.10
58809;DHT22;44579;51.672;7.834;2023-06-22T12:23:07;26.20;60.30
58809;DHT22;44579;51.672;7.834;2023-06-22T12:25:37;26.10;60.40
58809;DHT22;44579;51.672;7.834;2023-06-22T12:28:04;26.10;60.70
58809;DHT22;44579;51.672;7.834;2023-06-22T12:30:32;26.00;61.10
58809;DHT22;44579;51.672;7.834;2023-06-22T12:32:59;25.90;61.60
58809;DHT22;44579;51.672;7.834;2023-06-22T12:35:26;25.70;62.70
58809;DHT22;44579;51.672;7.834;2023-06-22T12:37:53;25.60;63.80
58809;DHT22;44579;51.672;7.834;2023-06-22T12:40:20;25.40;64.30
58809;DHT22;44579;51.672;7.834;2023-06-22T12:42:47;25.40;64.40
58809;DHT22;44579;51.672;7.834;2023-06-22T12:45:13;25.40;64.80
58809;DHT22;44579;51.672;7.834;2023-06-22T12:47:40;25.20;65.40
58809;DHT22;44579;51.672;7.834;2023-06-22T12:50:07;25.00;66.40
58809;DHT22;44579;51.672;7.834;2023-06-22T12:52:36;24.80;67.30
58809;DHT22;44579;51.672;7.834;2023-06-22T12:55:03;24.70;67.60
58809;DHT22;44579;51.672;7.834;2023-06-22T12:57:29;24.70;68.00
58809;DHT22;44579;51.672;7.834;2023-06-22T12:59:56;24.60;68.10
58809;DHT22;44579;51.672;7.834;2023-06-22T13:02:25;24.50;68.20
58809;DHT22;44579;51.672;7.834;2023-06-22T13:04:51;24.40;68.50
58809;DHT22;44579;51.672;7.834;2023-06-22T13:07:25;24.40;68.30
58809;DHT22;44579;51.672;7.834;2023-06-22T13:09:52;24.50;68.10
58809;DHT22;44579;51.672;7.834;2023-06-22T13:12:20;24.50;67.90
58809;DHT22;44579;51.672;7.834;2023-06-22T13:14:50;24.40;67.70
58809;DHT22;44579;51.672;7.834;2023-06-22T13:17:17;24.40;68.00
58809;DHT22;44579;51.672;7.834;2023-06-22T13:19:44;24.30;70.60
58809;DHT22;44579;51.672;7.834;2023-06-22T13:22:26;24.10;72.90
58809;DHT22;44579;51.672;7.834;2023-06-22T13:24:55;23.90;75.20
58809;DHT22;44579;51.672;7.834;2023-06-22T13:27:22;23.70;76.50
58809;DHT22;44579;51.672;7.834;2023-06-22T13:29:49;23.60;76.20
58809;DHT22;44579;51.672;7.834;2023-06-22T13:32:16;23.70;76.40
58809;DHT22;44579;51.672;7.834;2023-06-22T13:34:43;23.70;77.50
58809;DHT22;44579;51.672;7.834;2023-06-22T13:37:10;23.90;77.60
58809;DHT22;44579;51.672;7.834;2023-06-22T13:39:37;24.00;77.40
58809;DHT22;44579;51.672;7.834;2023-06-22T13:42:04;24.20;76.80
58809;DHT22;44579;51.672;7.834;2023-06-22T13:44:31;24.30;76.20
58809;DHT22;44579;51.672;7.834;2023-06-22T13:46:58;24.50;75.30
58809;DHT22;44579;51.672;7.834;2023-06-22T13:49:24;24.50;74.60
58809;DHT22;44579;51.672;7.834;2023-06-22T13:51:51;24.60;75.50
58809;DHT22;44579;51.672;7.834;2023-06-22T13:54:18;24.70;75.50
58809;DHT22;44579;51.672;7.834;2023-06-22T13:56:48;24.70;76.00
58809;DHT22;44579;51.672;7.834;2023-06-22T13:59:15;24.70;75.70
58809;DHT22;44579;51.672;7.834;2023-06-22T14:01:42;24.70;75.30
58809;DHT22;44579;51.672;7.834;2023-06-22T14:04:10;24.70;75.30
58809;DHT22;44579;51.672;7.834;2023-06-22T14:06:38;24.70;75.90
58809;DHT22;44579;51.672;7.834;2023-06-22T14:09:05;24.90;75.90
58809;DHT22;44579;51.672;7.834;2023-06-22T14:11:31;25.10;75.40
58809;DHT22;44579;51.672;7.834;2023-06-22T14:13:59;25.30;74.90
58809;DHT22;44579;51.672;7.834;2023-06-22T14:16:26;25.50;74.70
58809;DHT22;44579;51.672;7.834;2023-06-22T14:18:53;25.60;74.40
58809;DHT22;44579;51.672;7.834;2023-06-22T14:21:24;25.70;74.40
58809;DHT22;44579;51.672;7.834;2023-06-22T14:23:51;25.60;74.50
58809;DHT22;44579;51.672;7.834;2023-06-22T14:26:20;25.60;74.40
58809;DHT22;44579;51.672;7.834;2023-06-22T14:28:47;25.70;74.60
58809;DHT22;44579;51.672;7.834;2023-06-22T14:31:15;25.60;74.30
58809;DHT22;44579;51.672;7.834;2023-06-22T14:33:45;25.50;74.10
58809;DHT22;44579;51.672;7.834;2023-06-22T14:36:12;25.50;74.10
58809;DHT22;44579;51.672;7.834;2023-06-22T14:38:40;25.50;73.70
58809;DHT22;44579;51.672;7.834;2023-06-22T14:41:07;25.50;72.80
58809;DHT22;44579;51.672;7.834;2023-06-22T14:43:44;25.50;73.70
58809;DHT22;44579;51.672;7.834;2023-06-22T14:46:13;25.60;73.90
58809;DHT22;44579;51.672;7.834;2023-06-22T14:48:40;25.70;74.30
58809;DHT22;44579;51.672;7.834;2023-06-22T14:51:08;25.70;73.80
58809;DHT22;44579;51.672;7.834;2023-06-22T14:53:35;25.80;73.50
58809;DHT22;44579;51.672;7.834;2023-06-22T14:56:02;25.90;73.40
58809;DHT22;44579;51.672;7.834;2023-06-22T14:58:30;25.90;73.10
58809;DHT22;44579;51.672;7.834;2023-06-22T15:01:00;26.00;73.10
58809;DHT22;44579;51.672;7.834;2023-06-22T15:03:27;26.10;73.10
58809;DHT22;44579;51.672;7.834;2023-06-22T15:05:55;26.10;72.80
58809;DHT22;44579;51.672;7.834;2023-06-22T15:08:23;26.20;72.60
58809;DHT22;44579;51.672;7.834;2023-06-22T15:10:50;26.10;72.40
58809;DHT22;44579;51.672;7.834;2023-06-22T15:13:17;26.10;72.10
58809;DHT22;44579;51.672;7.834;2023-06-22T15:15:47;26.00;72.50
58809;DHT22;44579;51.672;7.834;2023-06-22T15:18:15;25.90;72.50
58809;DHT22;44579;51.672;7.834;2023-06-22T15:20:42;25.80;72.60
58809;DHT22;44579;51.672;7.834;2023-06-22T15:23:12;25.70;72.60
58809;DHT22;44579;51.672;7.834;2023-06-22T15:25:39;25.60;72.80
58809;DHT22;44579;51.672;7.834;2023-06-22T15:28:07;25.50;73.10
58809;DHT22;44579;51.672;7.834;2023-06-22T15:30:34;25.40;73.40
58809;DHT22;44579;51.672;7.834;2023-06-22T15:33:02;25.50;73.40
58809;DHT22;44579;51.672;7.834;2023-06-22T15:35:29;25.50;73.20
58809;DHT22;44579;51.672;7.834;2023-06-22T15:37:56;25.50;73.00
58809;DHT22;44579;51.672;7.834;2023-06-22T15:40:23;25.50;73.20
58809;DHT22;44579;51.672;7.834;2023-06-22T15:42:50;25.40;73.30
58809;DHT22;44579;51.672;7.834;2023-06-22T15:45:19;25.30;73.80